Latest Weather Observations for Warburto Point

IDS60801

Issued at 5:21 am CST Wednesday 2 September 2026 (issued every 10 minutes, with the page automatically refreshed every 10 minutes)

About weather observations | Map of weather stations | Latest weather observations for SA | Other Formats
Station Details ID: 022053 Name: WARBURTO POINT Lat: -34.00 Lon: 137.53 Height: 1.0 m
Data from the previous 72 hours. | See also: Recent months at Warburto Point
Date/Time
CST
Temp
°C
App
Temp
°C
Dew
Point
°C
Rel
Hum
%
Delta-T
°C
Wind Press
QNH
hPa
Press
MSL
hPa
Rain since
9am
mm
Dir  Spd
km/h
Gust
km/h
Spd
kts
Gust
kts
02/05:00am - - - - - SW 19 28 10 15 - - -
02/04:30am - - - - - SSW 22 26 12 14 - - -
02/04:00am - - - - - SSE 9 15 5 8 - - -
02/03:30am - - - - - ESE 6 7 3 4 - - -
02/03:00am - - - - - E 9 13 5 7 - - -
02/02:30am - - - - - SSW 7 13 4 7 - - -
02/02:00am - - - - - SW 13 17 7 9 - - -
02/01:30am - - - - - SSW 7 19 4 10 - - -
02/01:00am - - - - - SSW 13 17 7 9 - - -
02/12:30am - - - - - SSW 15 17 8 9 - - -
02/12:00am - - - - - SSW 17 20 9 11 - - -
 
Date/Time
CST
Temp
°C
App
Temp
°C
Dew
Point
°C
Rel
Hum
%
Delta-T
°C
Wind Press
QNH
hPa
Press
MSL
hPa
Rain since
9am
mm
Dir  Spd
km/h
Gust
km/h
Spd
kts
Gust
kts
01/11:30pm - - - - - SSW 15 19 8 10 - - -
01/11:00pm - - - - - SSW 17 24 9 13 - - -
01/10:30pm - - - - - SSW 19 24 10 13 - - -
01/10:00pm - - - - - SSW 17 20 9 11 - - -
01/09:30pm - - - - - SW 15 19 8 10 - - -
01/09:00pm - - - - - SSW 15 19 8 10 - - -
01/08:30pm - - - - - SSW 15 17 8 9 - - -
01/08:00pm - - - - - SW 20 26 11 14 - - -
01/07:30pm - - - - - SW 20 33 11 18 - - -
01/07:00pm - - - - - SE 11 17 6 9 - - -
01/06:30pm - - - - - NE 11 13 6 7 - - -
01/06:00pm - - - - - ENE 20 26 11 14 - - -
01/05:30pm - - - - - NE 13 15 7 8 - - -
01/05:00pm - - - - - NNE 11 15 6 8 - - -
01/04:30pm - - - - - ESE 7 9 4 5 - - -
01/04:00pm - - - - - SSE 11 13 6 7 - - -
01/03:30pm - - - - - ESE 9 9 5 5 - - -
01/03:00pm - - - - - ENE 11 13 6 7 - - -
01/02:30pm - - - - - N 13 17 7 9 - - -
01/02:00pm - - - - - N 20 26 11 14 - - -
01/01:30pm - - - - - N 24 30 13 16 - - -
01/01:00pm - - - - - N 28 35 15 19 - - -
01/12:30pm - - - - - NNE 30 35 16 19 - - -
01/12:00pm - - - - - NNE 32 37 17 20 - - -
01/11:30am - - - - - NNE 33 39 18 21 - - -
01/11:00am - - - - - NNE 32 37 17 20 - - -
01/10:30am - - - - - NNE 35 46 19 25 - - -
01/10:00am - - - - - N 35 44 19 24 - - -
01/09:30am - - - - - N 35 41 19 22 - - -
01/09:00am - - - - - N 37 43 20 23 - - -
01/08:30am - - - - - N 33 43 18 23 - - -
01/08:00am - - - - - NNE 35 41 19 22 - - -
01/07:30am - - - - - NNE 28 39 15 21 - - -
01/07:00am - - - - - NNE 24 32 13 17 - - -
01/06:30am - - - - - N 26 32 14 17 - - -
01/06:00am - - - - - NNE 28 32 15 17 - - -
01/05:30am - - - - - NNE 20 30 11 16 - - -
01/05:00am - - - - - NNE 15 26 8 14 - - -
01/04:30am - - - - - NNE 17 19 9 10 - - -
01/04:00am - - - - - NNE 15 20 8 11 - - -
01/03:30am - - - - - NNE 13 17 7 9 - - -
01/03:00am - - - - - NE 15 17 8 9 - - -
01/02:30am - - - - - NE 17 17 9 9 - - -
01/02:00am - - - - - NE 17 20 9 11 - - -
01/01:30am - - - - - NE 13 17 7 9 - - -
01/01:00am - - - - - NE 19 20 10 11 - - -
01/12:30am - - - - - NE 19 22 10 12 - - -
01/12:00am - - - - - NE 17 19 9 10 - - -
 
Date/Time
CST
Temp
°C
App
Temp
°C
Dew
Point
°C
Rel
Hum
%
Delta-T
°C
Wind Press
QNH
hPa
Press
MSL
hPa
Rain since
9am
mm
Dir  Spd
km/h
Gust
km/h
Spd
kts
Gust
kts
31/11:30pm - - - - - NE 15 17 8 9 - - -
31/11:00pm - - - - - NE 17 19 9 10 - - -
31/10:30pm - - - - - NE 17 19 9 10 - - -
31/10:00pm - - - - - ENE 19 22 10 12 - - -
31/09:30pm - - - - - ENE 20 24 11 13 - - -
31/09:00pm - - - - - ENE 20 24 11 13 - - -
31/08:30pm - - - - - ENE 19 20 10 11 - - -
31/08:00pm - - - - - ENE 19 20 10 11 - - -
31/07:30pm - - - - - ENE 19 22 10 12 - - -
31/07:00pm - - - - - ENE 17 20 9 11 - - -
31/06:30pm - - - - - ENE 17 19 9 10 - - -
31/06:00pm - - - - - ENE 15 17 8 9 - - -
31/05:30pm - - - - - ENE 13 15 7 8 - - -
31/05:00pm - - - - - NE 17 19 9 10 - - -
31/04:30pm - - - - - NNE 19 26 10 14 - - -
31/04:00pm - - - - - NNE 17 22 9 12 - - -
31/03:30pm - - - - - NNE 19 24 10 13 - - -
31/03:00pm - - - - - NNE 19 24 10 13 - - -
31/02:30pm - - - - - NNE 17 20 9 11 - - -
31/02:00pm - - - - - N 20 26 11 14 - - -
31/01:30pm - - - - - N 17 22 9 12 - - -
31/01:00pm - - - - - NNE 17 17 9 9 - - -
31/12:30pm - - - - - NNE 17 20 9 11 - - -
31/12:00pm - - - - - NNE 17 19 9 10 - - -
31/11:30am - - - - - N 17 19 9 10 - - -
31/11:00am - - - - - N 13 19 7 10 - - -
31/10:30am - - - - - NNE 15 19 8 10 - - -
31/10:00am - - - - - NNE 15 19 8 10 - - -
31/09:30am - - - - - NE 17 20 9 11 - - -
31/09:00am - - - - - NE 19 26 10 14 - - -
31/08:30am - - - - - ENE 17 20 9 11 - - -
31/08:00am - - - - - NE 13 17 7 9 - - -
31/07:30am - - - - - ENE 13 17 7 9 - - -
31/07:00am - - - - - ENE 13 17 7 9 - - -
31/06:30am - - - - - E 17 17 9 9 - - -
31/06:00am - - - - - E 17 19 9 10 - - -
31/05:30am - - - - - E 17 20 9 11 - - -
31/05:00am - - - - - E 19 20 10 11 - - -
31/04:30am - - - - - E 17 19 9 10 - - -
31/04:00am - - - - - E 17 20 9 11 - - -
31/03:30am - - - - - E 19 20 10 11 - - -
31/03:00am - - - - - E 19 20 10 11 - - -
31/02:30am - - - - - E 19 22 10 12 - - -
31/02:00am - - - - - E 19 24 10 13 - - -
31/01:30am - - - - - E 17 20 9 11 - - -
31/01:00am - - - - - E 20 26 11 14 - - -
31/12:30am - - - - - E 17 20 9 11 - - -
31/12:00am - - - - - ESE 15 17 8 9 - - -
 
Date/Time
CST
Temp
°C
App
Temp
°C
Dew
Point
°C
Rel
Hum
%
Delta-T
°C
Wind Press
QNH
hPa
Press
MSL
hPa
Rain since
9am
mm
Dir  Spd
km/h
Gust
km/h
Spd
kts
Gust
kts
30/11:30pm - - - - - ESE 11 15 6 8 - - -
30/11:00pm - - - - - SE 13 17 7 9 - - -
30/10:30pm - - - - - SE 15 19 8 10 - - -
30/10:00pm - - - - - ESE 9 13 5 7 - - -
30/09:30pm - - - - - SE 9 13 5 7 - - -
30/09:00pm - - - - - SE 13 15 7 8 - - -
30/08:30pm - - - - - S 13 17 7 9 - - -
30/08:00pm - - - - - S 13 17 7 9 - - -
30/07:30pm - - - - - S 17 20 9 11 - - -
30/07:00pm - - - - - S 19 22 10 12 - - -
30/06:30pm - - - - - SSW 20 24 11 13 - - -
30/06:00pm - - - - - S 20 26 11 14 - - -
30/05:30pm - - - - - SSW 15 19 8 10 - - -
30/05:00pm - - - - - SSW 19 24 10 13 - - -
30/04:30pm - - - - - SW 20 24 11 13 - - -
30/04:00pm - - - - - SW 17 22 9 12 - - -
30/03:30pm - - - - - SW 17 22 9 12 - - -
30/03:00pm - - - - - SW 15 19 8 10 - - -
30/02:30pm - - - - - W 13 15 7 8 - - -
30/02:00pm - - - - - W 15 19 8 10 - - -
30/01:30pm - - - - - W 13 15 7 8 - - -
30/01:00pm - - - - - WNW 13 15 7 8 - - -
30/12:30pm - - - - - WNW 13 15 7 8 - - -
30/12:00pm - - - - - NNW 11 15 6 8 - - -
30/11:30am - - - - - N 13 17 7 9 - - -
30/11:00am - - - - - ENE 13 19 7 10 - - -
30/10:30am - - - - - E 15 20 8 11 - - -
30/10:00am - - - - - E 15 20 8 11 - - -
30/09:30am - - - - - E 17 20 9 11 - - -
30/09:00am - - - - - SE 15 17 8 9 - - -
30/08:30am - - - - - ESE 11 13 6 7 - - -
30/08:00am - - - - - E 7 9 4 5 - - -
30/07:30am - - - - - ENE 9 11 5 6 - - -
30/07:00am - - - - - ENE 7 9 4 5 - - -
30/06:30am - - - - - ENE 7 9 4 5 - - -
30/06:00am - - - - - NNE 7 15 4 8 - - -
30/05:30am - - - - - ESE 13 15 7 8 - - -

Other formats

Comma delimited format used in spreadsheet applications
http://www.bom.gov.au/fwo/IDS60801/IDS60801.94666.axf

JavaScript Object Notation format (JSON) in row-major order
http://www.bom.gov.au/fwo/IDS60801/IDS60801.94666.json

Data quality

Most of these data are generated automatically and are frequently updated. Quality checks on data are not normally performed. It is possible for incorrect values to appear. Refer to information at About Latest Weather Observations and please check the disclaimer before using these data.